sensor_id;sensor_type;location;lat;lon;timestamp;temperature;humidity
37460;DHT22;23318;50.966;5.284;2022-07-03T00:02:09;18.40;99.90
37460;DHT22;23318;50.966;5.284;2022-07-03T00:04:35;18.40;99.90
37460;DHT22;23318;50.966;5.284;2022-07-03T00:07:00;18.30;99.90
37460;DHT22;23318;50.966;5.284;2022-07-03T00:09:26;17.90;99.90
37460;DHT22;23318;50.966;5.284;2022-07-03T00:11:52;18.00;99.90
37460;DHT22;23318;50.966;5.284;2022-07-03T00:14:18;18.10;99.90
37460;DHT22;23318;50.966;5.284;2022-07-03T00:16:44;18.10;99.90
37460;DHT22;23318;50.966;5.284;2022-07-03T00:19:10;18.30;99.90
37460;DHT22;23318;50.966;5.284;2022-07-03T00:24:20;18.30;99.90
37460;DHT22;23318;50.966;5.284;2022-07-03T00:26:50;18.20;99.90
37460;DHT22;23318;50.966;5.284;2022-07-03T00:29:17;18.10;99.90
37460;DHT22;23318;50.966;5.284;2022-07-03T00:31:45;18.10;99.90
37460;DHT22;23318;50.966;5.284;2022-07-03T00:34:15;18.00;99.90
37460;DHT22;23318;50.966;5.284;2022-07-03T00:36:42;18.00;99.90
37460;DHT22;23318;50.966;5.284;2022-07-03T00:39:09;17.90;99.90
37460;DHT22;23318;50.966;5.284;2022-07-03T00:41:36;17.90;99.90
37460;DHT22;23318;50.966;5.284;2022-07-03T00:44:03;17.50;99.90
37460;DHT22;23318;50.966;5.284;2022-07-03T00:46:29;16.90;99.90
37460;DHT22;23318;50.966;5.284;2022-07-03T00:48:56;16.40;99.90
37460;DHT22;23318;50.966;5.284;2022-07-03T00:51:26;16.30;99.90
37460;DHT22;23318;50.966;5.284;2022-07-03T00:53:56;16.30;99.90
37460;DHT22;23318;50.966;5.284;2022-07-03T00:56:27;16.60;99.90
37460;DHT22;23318;50.966;5.284;2022-07-03T00:58:56;16.70;99.90
37460;DHT22;23318;50.966;5.284;2022-07-03T01:01:25;17.00;99.90
37460;DHT22;23318;50.966;5.284;2022-07-03T01:06:35;17.30;99.90
37460;DHT22;23318;50.966;5.284;2022-07-03T01:09:05;17.50;99.90
37460;DHT22;23318;50.966;5.284;2022-07-03T01:11:38;17.40;99.90
37460;DHT22;23318;50.966;5.284;2022-07-03T01:14:32;17.10;99.90
37460;DHT22;23318;50.966;5.284;2022-07-03T01:17:12;17.30;99.90
37460;DHT22;23318;50.966;5.284;2022-07-03T01:19:44;17.10;99.90
37460;DHT22;23318;50.966;5.284;2022-07-03T01:27:52;17.00;99.90
37460;DHT22;23318;50.966;5.284;2022-07-03T01:30:23;17.50;99.90
37460;DHT22;23318;50.966;5.284;2022-07-03T01:33:02;17.50;99.90
37460;DHT22;23318;50.966;5.284;2022-07-03T01:38:22;17.60;99.90
37460;DHT22;23318;50.966;5.284;2022-07-03T01:40:49;17.50;99.90
37460;DHT22;23318;50.966;5.284;2022-07-03T01:43:16;17.20;99.90
37460;DHT22;23318;50.966;5.284;2022-07-03T01:45:47;17.10;99.90
37460;DHT22;23318;50.966;5.284;2022-07-03T01:48:14;17.20;99.90
37460;DHT22;23318;50.966;5.284;2022-07-03T01:50:41;17.50;99.90
37460;DHT22;23318;50.966;5.284;2022-07-03T01:53:09;17.20;99.90
37460;DHT22;23318;50.966;5.284;2022-07-03T01:55:38;17.40;99.90
37460;DHT22;23318;50.966;5.284;2022-07-03T01:58:05;17.50;99.90
37460;DHT22;23318;50.966;5.284;2022-07-03T02:00:31;17.40;99.90
37460;DHT22;23318;50.966;5.284;2022-07-03T02:03:04;17.30;99.90
37460;DHT22;23318;50.966;5.284;2022-07-03T02:05:42;16.70;99.90
37460;DHT22;23318;50.966;5.284;2022-07-03T02:08:21;16.70;99.90
37460;DHT22;23318;50.966;5.284;2022-07-03T02:11:08;17.10;99.90
37460;DHT22;23318;50.966;5.284;2022-07-03T02:16:51;16.70;99.90
37460;DHT22;23318;50.966;5.284;2022-07-03T02:19:23;16.60;99.90
37460;DHT22;23318;50.966;5.284;2022-07-03T02:21:56;16.20;99.90
37460;DHT22;23318;50.966;5.284;2022-07-03T02:24:23;16.10;99.90
37460;DHT22;23318;50.966;5.284;2022-07-03T02:27:00;16.70;99.90
37460;DHT22;23318;50.966;5.284;2022-07-03T02:29:40;16.80;99.90
37460;DHT22;23318;50.966;5.284;2022-07-03T02:32:20;16.20;99.90
37460;DHT22;23318;50.966;5.284;2022-07-03T02:34:54;16.50;99.90
37460;DHT22;23318;50.966;5.284;2022-07-03T02:37:22;16.60;99.90
37460;DHT22;23318;50.966;5.284;2022-07-03T02:40:00;16.80;99.90
37460;DHT22;23318;50.966;5.284;2022-07-03T02:43:01;17.00;99.90
37460;DHT22;23318;50.966;5.284;2022-07-03T02:45:37;17.00;99.90
37460;DHT22;23318;50.966;5.284;2022-07-03T02:48:22;17.10;99.90
37460;DHT22;23318;50.966;5.284;2022-07-03T02:50:52;16.10;99.90
37460;DHT22;23318;50.966;5.284;2022-07-03T02:53:26;15.80;99.90
37460;DHT22;23318;50.966;5.284;2022-07-03T02:56:07;16.00;99.90
37460;DHT22;23318;50.966;5.284;2022-07-03T03:04:12;16.10;99.90
37460;DHT22;23318;50.966;5.284;2022-07-03T03:06:45;16.00;99.90
37460;DHT22;23318;50.966;5.284;2022-07-03T03:09:15;16.20;99.90
37460;DHT22;23318;50.966;5.284;2022-07-03T03:11:44;16.40;99.90
37460;DHT22;23318;50.966;5.284;2022-07-03T03:14:15;16.40;99.90
37460;DHT22;23318;50.966;5.284;2022-07-03T03:16:50;16.40;99.90
37460;DHT22;23318;50.966;5.284;2022-07-03T03:19:20;16.50;99.90
37460;DHT22;23318;50.966;5.284;2022-07-03T03:22:03;16.30;99.90
37460;DHT22;23318;50.966;5.284;2022-07-03T03:24:33;15.20;99.90
37460;DHT22;23318;50.966;5.284;2022-07-03T03:26:59;15.30;99.90
37460;DHT22;23318;50.966;5.284;2022-07-03T03:29:25;15.70;99.90
37460;DHT22;23318;50.966;5.284;2022-07-03T03:31:51;16.10;99.90
37460;DHT22;23318;50.966;5.284;2022-07-03T03:34:18;16.20;99.90
37460;DHT22;23318;50.966;5.284;2022-07-03T03:36:45;16.30;99.90
37460;DHT22;23318;50.966;5.284;2022-07-03T03:39:12;16.10;99.90
37460;DHT22;23318;50.966;5.284;2022-07-03T03:41:38;15.70;99.90
37460;DHT22;23318;50.966;5.284;2022-07-03T03:44:04;15.80;99.90
37460;DHT22;23318;50.966;5.284;2022-07-03T03:46:30;15.90;99.90
37460;DHT22;23318;50.966;5.284;2022-07-03T03:48:56;15.90;99.90
37460;DHT22;23318;50.966;5.284;2022-07-03T03:51:22;15.70;99.90
37460;DHT22;23318;50.966;5.284;2022-07-03T03:53:48;15.90;99.90
37460;DHT22;23318;50.966;5.284;2022-07-03T03:56:14;15.70;99.90
37460;DHT22;23318;50.966;5.284;2022-07-03T03:58:41;15.60;99.90
37460;DHT22;23318;50.966;5.284;2022-07-03T04:01:09;15.70;99.90
37460;DHT22;23318;50.966;5.284;2022-07-03T04:03:35;15.40;99.90
37460;DHT22;23318;50.966;5.284;2022-07-03T04:06:02;15.50;99.90
37460;DHT22;23318;50.966;5.284;2022-07-03T04:08:29;15.70;99.90
37460;DHT22;23318;50.966;5.284;2022-07-03T04:10:55;15.70;99.90
37460;DHT22;23318;50.966;5.284;2022-07-03T04:13:21;15.60;99.90
37460;DHT22;23318;50.966;5.284;2022-07-03T04:15:48;15.50;99.90
37460;DHT22;23318;50.966;5.284;2022-07-03T04:18:14;15.50;99.90
37460;DHT22;23318;50.966;5.284;2022-07-03T04:20:40;15.20;99.90
37460;DHT22;23318;50.966;5.284;2022-07-03T04:23:06;15.00;99.90
37460;DHT22;23318;50.966;5.284;2022-07-03T04:25:32;14.80;99.90
37460;DHT22;23318;50.966;5.284;2022-07-03T04:27:58;15.00;99.90
37460;DHT22;23318;50.966;5.284;2022-07-03T04:30:24;15.30;99.90
37460;DHT22;23318;50.966;5.284;2022-07-03T04:32:50;15.70;99.90
37460;DHT22;23318;50.966;5.284;2022-07-03T04:35:16;15.60;99.90
37460;DHT22;23318;50.966;5.284;2022-07-03T04:37:43;15.40;99.90
37460;DHT22;23318;50.966;5.284;2022-07-03T04:40:09;15.30;99.90
37460;DHT22;23318;50.966;5.284;2022-07-03T04:42:35;15.50;99.90
37460;DHT22;23318;50.966;5.284;2022-07-03T04:45:01;15.50;99.90
37460;DHT22;23318;50.966;5.284;2022-07-03T04:47:27;15.40;99.90
37460;DHT22;23318;50.966;5.284;2022-07-03T04:49:53;15.30;99.90
37460;DHT22;23318;50.966;5.284;2022-07-03T04:52:18;15.30;99.90
37460;DHT22;23318;50.966;5.284;2022-07-03T04:54:44;15.30;99.90
37460;DHT22;23318;50.966;5.284;2022-07-03T04:57:10;15.40;99.90
37460;DHT22;23318;50.966;5.284;2022-07-03T04:59:36;15.80;99.90
37460;DHT22;23318;50.966;5.284;2022-07-03T05:02:02;16.10;99.90
37460;DHT22;23318;50.966;5.284;2022-07-03T05:04:27;16.30;99.90
37460;DHT22;23318;50.966;5.284;2022-07-03T05:06:54;16.70;99.90
37460;DHT22;23318;50.966;5.284;2022-07-03T05:09:19;17.10;99.90
37460;DHT22;23318;50.966;5.284;2022-07-03T05:11:45;17.10;99.90
37460;DHT22;23318;50.966;5.284;2022-07-03T05:14:11;17.00;99.90
37460;DHT22;23318;50.966;5.284;2022-07-03T05:16:37;16.60;99.90
37460;DHT22;23318;50.966;5.284;2022-07-03T05:19:02;16.40;99.90
37460;DHT22;23318;50.966;5.284;2022-07-03T05:21:28;16.70;99.90
37460;DHT22;23318;50.966;5.284;2022-07-03T05:23:54;16.90;99.90
37460;DHT22;23318;50.966;5.284;2022-07-03T05:26:20;16.80;99.90
37460;DHT22;23318;50.966;5.284;2022-07-03T05:28:46;17.30;99.90
37460;DHT22;23318;50.966;5.284;2022-07-03T05:31:11;17.00;99.90
37460;DHT22;23318;50.966;5.284;2022-07-03T05:33:37;16.60;99.90
37460;DHT22;23318;50.966;5.284;2022-07-03T05:36:04;16.30;99.90
37460;DHT22;23318;50.966;5.284;2022-07-03T05:38:31;16.20;99.90
37460;DHT22;23318;50.966;5.284;2022-07-03T05:41:19;16.00;99.90
37460;DHT22;23318;50.966;5.284;2022-07-03T05:43:45;16.20;99.90
37460;DHT22;23318;50.966;5.284;2022-07-03T05:46:11;16.10;99.90
37460;DHT22;23318;50.966;5.284;2022-07-03T05:48:37;16.20;99.90
37460;DHT22;23318;50.966;5.284;2022-07-03T05:51:03;16.40;99.90
37460;DHT22;23318;50.966;5.284;2022-07-03T05:53:29;16.30;99.90
37460;DHT22;23318;50.966;5.284;2022-07-03T05:55:55;16.60;99.90
37460;DHT22;23318;50.966;5.284;2022-07-03T05:58:20;16.50;99.90
37460;DHT22;23318;50.966;5.284;2022-07-03T06:00:46;16.70;99.90
37460;DHT22;23318;50.966;5.284;2022-07-03T06:03:12;16.80;99.90
37460;DHT22;23318;50.966;5.284;2022-07-03T06:05:38;16.90;99.90
37460;DHT22;23318;50.966;5.284;2022-07-03T06:08:04;16.80;99.90
37460;DHT22;23318;50.966;5.284;2022-07-03T06:10:31;16.90;99.90
37460;DHT22;23318;50.966;5.284;2022-07-03T06:12:57;16.80;99.90
37460;DHT22;23318;50.966;5.284;2022-07-03T06:15:23;16.90;99.90
37460;DHT22;23318;50.966;5.284;2022-07-03T06:17:49;16.90;99.90
37460;DHT22;23318;50.966;5.284;2022-07-03T06:20:15;17.00;99.90
37460;DHT22;23318;50.966;5.284;2022-07-03T06:22:41;17.10;99.90
37460;DHT22;23318;50.966;5.284;2022-07-03T06:25:07;17.40;99.90
37460;DHT22;23318;50.966;5.284;2022-07-03T06:27:33;17.50;99.90
37460;DHT22;23318;50.966;5.284;2022-07-03T06:29:59;17.40;99.90
37460;DHT22;23318;50.966;5.284;2022-07-03T06:32:25;17.40;99.90
37460;DHT22;23318;50.966;5.284;2022-07-03T06:34:50;17.60;99.90
37460;DHT22;23318;50.966;5.284;2022-07-03T06:37:16;17.70;99.90
37460;DHT22;23318;50.966;5.284;2022-07-03T06:39:42;18.10;99.90
37460;DHT22;23318;50.966;5.284;2022-07-03T06:42:08;17.90;99.90
37460;DHT22;23318;50.966;5.284;2022-07-03T06:44:33;17.90;99.90
37460;DHT22;23318;50.966;5.284;2022-07-03T06:46:59;17.90;99.90
37460;DHT22;23318;50.966;5.284;2022-07-03T06:49:29;17.90;99.90
37460;DHT22;23318;50.966;5.284;2022-07-03T06:51:57;18.00;99.90
37460;DHT22;23318;50.966;5.284;2022-07-03T06:54:22;17.90;99.90
37460;DHT22;23318;50.966;5.284;2022-07-03T06:56:48;18.30;99.90
37460;DHT22;23318;50.966;5.284;2022-07-03T06:59:14;18.40;99.90
37460;DHT22;23318;50.966;5.284;2022-07-03T07:01:40;18.60;99.90
37460;DHT22;23318;50.966;5.284;2022-07-03T07:04:05;18.50;99.90
37460;DHT22;23318;50.966;5.284;2022-07-03T07:06:31;18.80;99.90
37460;DHT22;23318;50.966;5.284;2022-07-03T07:08:56;18.90;99.90
37460;DHT22;23318;50.966;5.284;2022-07-03T07:11:22;18.50;99.90
37460;DHT22;23318;50.966;5.284;2022-07-03T07:13:48;18.60;99.90
37460;DHT22;23318;50.966;5.284;2022-07-03T07:16:14;18.80;99.90
37460;DHT22;23318;50.966;5.284;2022-07-03T07:18:43;18.70;99.90
37460;DHT22;23318;50.966;5.284;2022-07-03T07:21:09;18.80;99.90
37460;DHT22;23318;50.966;5.284;2022-07-03T07:23:35;18.80;99.90
37460;DHT22;23318;50.966;5.284;2022-07-03T07:26:01;19.10;99.90
37460;DHT22;23318;50.966;5.284;2022-07-03T07:28:27;18.70;99.90
37460;DHT22;23318;50.966;5.284;2022-07-03T07:30:53;18.90;99.90
37460;DHT22;23318;50.966;5.284;2022-07-03T07:33:21;19.10;99.90
37460;DHT22;23318;50.966;5.284;2022-07-03T07:35:47;19.40;99.90
37460;DHT22;23318;50.966;5.284;2022-07-03T07:38:13;19.60;99.90
37460;DHT22;23318;50.966;5.284;2022-07-03T07:40:38;19.50;99.90
37460;DHT22;23318;50.966;5.284;2022-07-03T07:43:04;19.60;99.90
37460;DHT22;23318;50.966;5.284;2022-07-03T07:45:30;19.70;99.90
37460;DHT22;23318;50.966;5.284;2022-07-03T07:47:55;19.70;99.90
37460;DHT22;23318;50.966;5.284;2022-07-03T07:50:21;19.50;99.90
37460;DHT22;23318;50.966;5.284;2022-07-03T07:52:47;19.50;99.90
37460;DHT22;23318;50.966;5.284;2022-07-03T07:55:13;19.40;99.90
37460;DHT22;23318;50.966;5.284;2022-07-03T07:57:40;19.70;99.90
37460;DHT22;23318;50.966;5.284;2022-07-03T08:00:07;19.50;99.90
37460;DHT22;23318;50.966;5.284;2022-07-03T08:02:33;19.70;99.90
37460;DHT22;23318;50.966;5.284;2022-07-03T08:05:17;19.90;99.90
37460;DHT22;23318;50.966;5.284;2022-07-03T08:08:21;19.80;99.90
37460;DHT22;23318;50.966;5.284;2022-07-03T08:10:49;19.40;99.90
37460;DHT22;23318;50.966;5.284;2022-07-03T08:13:17;19.20;99.90
37460;DHT22;23318;50.966;5.284;2022-07-03T08:15:44;19.40;99.90
37460;DHT22;23318;50.966;5.284;2022-07-03T08:18:10;19.70;99.90
37460;DHT22;23318;50.966;5.284;2022-07-03T08:20:37;19.90;99.90
37460;DHT22;23318;50.966;5.284;2022-07-03T08:23:04;19.90;99.90
37460;DHT22;23318;50.966;5.284;2022-07-03T08:25:30;19.80;99.90
37460;DHT22;23318;50.966;5.284;2022-07-03T08:27:56;19.90;99.90
37460;DHT22;23318;50.966;5.284;2022-07-03T08:30:23;19.80;99.90
37460;DHT22;23318;50.966;5.284;2022-07-03T08:32:50;19.80;99.90
37460;DHT22;23318;50.966;5.284;2022-07-03T08:35:16;19.90;99.90
37460;DHT22;23318;50.966;5.284;2022-07-03T08:37:42;20.30;99.90
37460;DHT22;23318;50.966;5.284;2022-07-03T08:40:15;20.30;99.90
37460;DHT22;23318;50.966;5.284;2022-07-03T08:42:57;20.20;99.90
37460;DHT22;23318;50.966;5.284;2022-07-03T08:45:24;20.50;99.90
37460;DHT22;23318;50.966;5.284;2022-07-03T08:47:53;20.70;99.90
37460;DHT22;23318;50.966;5.284;2022-07-03T08:50:20;20.70;99.90
37460;DHT22;23318;50.966;5.284;2022-07-03T08:52:46;20.80;99.90
37460;DHT22;23318;50.966;5.284;2022-07-03T08:55:14;20.80;99.90
37460;DHT22;23318;50.966;5.284;2022-07-03T08:57:41;21.20;99.90
37460;DHT22;23318;50.966;5.284;2022-07-03T09:00:10;21.40;99.90
37460;DHT22;23318;50.966;5.284;2022-07-03T09:02:36;21.60;99.90
37460;DHT22;23318;50.966;5.284;2022-07-03T09:05:04;21.40;99.90
37460;DHT22;23318;50.966;5.284;2022-07-03T09:07:35;21.10;99.90
37460;DHT22;23318;50.966;5.284;2022-07-03T09:10:02;21.00;99.90
37460;DHT22;23318;50.966;5.284;2022-07-03T09:12:30;21.30;99.90
37460;DHT22;23318;50.966;5.284;2022-07-03T09:15:00;21.40;99.90
37460;DHT22;23318;50.966;5.284;2022-07-03T09:17:27;21.30;99.90
37460;DHT22;23318;50.966;5.284;2022-07-03T09:19:53;21.30;99.90
37460;DHT22;23318;50.966;5.284;2022-07-03T09:22:26;21.10;99.90
37460;DHT22;23318;50.966;5.284;2022-07-03T09:24:55;21.20;99.90
37460;DHT22;23318;50.966;5.284;2022-07-03T09:27:27;21.00;99.90
37460;DHT22;23318;50.966;5.284;2022-07-03T09:29:57;20.90;99.90
37460;DHT22;23318;50.966;5.284;2022-07-03T09:32:24;21.30;99.90
37460;DHT22;23318;50.966;5.284;2022-07-03T09:35:10;21.90;99.90
37460;DHT22;23318;50.966;5.284;2022-07-03T09:37:37;22.00;99.90
37460;DHT22;23318;50.966;5.284;2022-07-03T09:40:03;22.10;99.90
37460;DHT22;23318;50.966;5.284;2022-07-03T09:42:29;22.70;99.90
37460;DHT22;23318;50.966;5.284;2022-07-03T09:44:54;22.90;99.90
37460;DHT22;23318;50.966;5.284;2022-07-03T09:47:24;22.70;99.90
37460;DHT22;23318;50.966;5.284;2022-07-03T09:49:54;22.40;99.90
37460;DHT22;23318;50.966;5.284;2022-07-03T09:52:43;22.50;99.90
37460;DHT22;23318;50.966;5.284;2022-07-03T09:57:47;21.80;99.90
37460;DHT22;23318;50.966;5.284;2022-07-03T10:00:27;21.60;99.90
37460;DHT22;23318;50.966;5.284;2022-07-03T10:02:54;21.50;99.90
37460;DHT22;23318;50.966;5.284;2022-07-03T10:05:39;21.90;99.90
37460;DHT22;23318;50.966;5.284;2022-07-03T10:10:34;22.80;99.90
37460;DHT22;23318;50.966;5.284;2022-07-03T10:13:00;23.10;99.90
37460;DHT22;23318;50.966;5.284;2022-07-03T10:15:27;22.80;99.90
37460;DHT22;23318;50.966;5.284;2022-07-03T10:17:55;22.70;99.90
37460;DHT22;23318;50.966;5.284;2022-07-03T10:20:39;22.50;99.90
37460;DHT22;23318;50.966;5.284;2022-07-03T10:23:04;22.70;99.90
37460;DHT22;23318;50.966;5.284;2022-07-03T10:25:31;22.70;99.90
37460;DHT22;23318;50.966;5.284;2022-07-03T10:27:57;22.80;99.90
37460;DHT22;23318;50.966;5.284;2022-07-03T10:30:24;22.90;99.90
37460;DHT22;23318;50.966;5.284;2022-07-03T10:32:52;23.50;99.90
37460;DHT22;23318;50.966;5.284;2022-07-03T10:35:33;23.10;99.90
37460;DHT22;23318;50.966;5.284;2022-07-03T10:43:26;23.40;99.90
37460;DHT22;23318;50.966;5.284;2022-07-03T10:46:13;23.40;99.90
37460;DHT22;23318;50.966;5.284;2022-07-03T10:51:51;22.40;99.90
37460;DHT22;23318;50.966;5.284;2022-07-03T11:02:28;25.50;97.80
37460;DHT22;23318;50.966;5.284;2022-07-03T11:15:33;26.80;95.40
37460;DHT22;23318;50.966;5.284;2022-07-03T11:23:29;27.60;94.90
37460;DHT22;23318;50.966;5.284;2022-07-03T11:26:00;27.70;94.00
37460;DHT22;23318;50.966;5.284;2022-07-03T11:38:53;25.70;97.60
37460;DHT22;23318;50.966;5.284;2022-07-03T11:44:06;25.90;97.30
37460;DHT22;23318;50.966;5.284;2022-07-03T11:46:37;27.10;95.70
37460;DHT22;23318;50.966;5.284;2022-07-03T11:49:22;28.10;93.90
37460;DHT22;23318;50.966;5.284;2022-07-03T11:54:19;26.90;94.90
37460;DHT22;23318;50.966;5.284;2022-07-03T11:56:45;27.40;94.00
37460;DHT22;23318;50.966;5.284;2022-07-03T11:59:11;27.20;93.40
37460;DHT22;23318;50.966;5.284;2022-07-03T12:01:38;27.00;94.80
37460;DHT22;23318;50.966;5.284;2022-07-03T12:04:08;28.30;94.00
37460;DHT22;23318;50.966;5.284;2022-07-03T12:09:15;29.00;92.30
37460;DHT22;23318;50.966;5.284;2022-07-03T12:11:55;27.00;94.00
37460;DHT22;23318;50.966;5.284;2022-07-03T12:17:15;25.60;97.40
37460;DHT22;23318;50.966;5.284;2022-07-03T12:20:08;25.30;96.80
37460;DHT22;23318;50.966;5.284;2022-07-03T12:22:36;28.30;94.10
37460;DHT22;23318;50.966;5.284;2022-07-03T12:25:13;30.20;91.80
37460;DHT22;23318;50.966;5.284;2022-07-03T12:27:41;30.60;91.00
37460;DHT22;23318;50.966;5.284;2022-07-03T12:30:11;31.10;90.10
37460;DHT22;23318;50.966;5.284;2022-07-03T12:32:38;31.80;89.60
37460;DHT22;23318;50.966;5.284;2022-07-03T12:35:05;32.20;88.40
37460;DHT22;23318;50.966;5.284;2022-07-03T12:37:39;30.00;89.50
37460;DHT22;23318;50.966;5.284;2022-07-03T12:40:07;27.20;92.50
37460;DHT22;23318;50.966;5.284;2022-07-03T12:42:54;26.40;94.40
37460;DHT22;23318;50.966;5.284;2022-07-03T12:45:25;25.60;94.20
37460;DHT22;23318;50.966;5.284;2022-07-03T12:48:05;26.20;95.00
37460;DHT22;23318;50.966;5.284;2022-07-03T12:50:47;28.00;93.90
37460;DHT22;23318;50.966;5.284;2022-07-03T12:53:29;30.20;91.10
37460;DHT22;23318;50.966;5.284;2022-07-03T12:56:00;29.10;91.70
37460;DHT22;23318;50.966;5.284;2022-07-03T12:58:26;30.10;91.00
37460;DHT22;23318;50.966;5.284;2022-07-03T13:01:28;28.60;90.80
37460;DHT22;23318;50.966;5.284;2022-07-03T13:03:54;28.50;91.20
37460;DHT22;23318;50.966;5.284;2022-07-03T13:06:21;29.50;90.10
37460;DHT22;23318;50.966;5.284;2022-07-03T13:11:32;30.00;89.20
37460;DHT22;23318;50.966;5.284;2022-07-03T13:16:28;30.00;87.80
37460;DHT22;23318;50.966;5.284;2022-07-03T13:19:00;29.10;89.70
37460;DHT22;23318;50.966;5.284;2022-07-03T13:21:28;29.20;90.20
37460;DHT22;23318;50.966;5.284;2022-07-03T13:23:55;28.00;90.00
37460;DHT22;23318;50.966;5.284;2022-07-03T13:26:20;26.10;90.70
37460;DHT22;23318;50.966;5.284;2022-07-03T13:28:46;25.10;92.40
37460;DHT22;23318;50.966;5.284;2022-07-03T13:31:12;24.60;93.70
37460;DHT22;23318;50.966;5.284;2022-07-03T13:33:38;24.20;93.90
37460;DHT22;23318;50.966;5.284;2022-07-03T13:36:04;26.30;92.10
37460;DHT22;23318;50.966;5.284;2022-07-03T13:38:30;28.10;90.10
37460;DHT22;23318;50.966;5.284;2022-07-03T13:40:56;27.70;90.40
37460;DHT22;23318;50.966;5.284;2022-07-03T13:43:22;27.80;90.10
37460;DHT22;23318;50.966;5.284;2022-07-03T13:45:48;27.10;90.70
37460;DHT22;23318;50.966;5.284;2022-07-03T13:48:13;24.40;92.50
37460;DHT22;23318;50.966;5.284;2022-07-03T13:50:42;25.00;91.50
37460;DHT22;23318;50.966;5.284;2022-07-03T13:53:08;24.70;93.50
37460;DHT22;23318;50.966;5.284;2022-07-03T13:55:34;24.90;93.20
37460;DHT22;23318;50.966;5.284;2022-07-03T13:58:00;26.20;91.70
37460;DHT22;23318;50.966;5.284;2022-07-03T14:00:30;25.60;92.80
37460;DHT22;23318;50.966;5.284;2022-07-03T14:02:56;23.60;93.50
37460;DHT22;23318;50.966;5.284;2022-07-03T14:05:22;23.90;93.70
37460;DHT22;23318;50.966;5.284;2022-07-03T14:07:48;25.60;92.50
37460;DHT22;23318;50.966;5.284;2022-07-03T14:10:14;25.90;91.90
37460;DHT22;23318;50.966;5.284;2022-07-03T14:12:40;26.60;90.50
37460;DHT22;23318;50.966;5.284;2022-07-03T14:15:06;27.90;88.50
37460;DHT22;23318;50.966;5.284;2022-07-03T14:17:32;27.10;90.40
37460;DHT22;23318;50.966;5.284;2022-07-03T14:19:57;28.00;88.20
37460;DHT22;23318;50.966;5.284;2022-07-03T14:22:23;26.80;89.90
37460;DHT22;23318;50.966;5.284;2022-07-03T14:24:49;26.10;90.40
37460;DHT22;23318;50.966;5.284;2022-07-03T14:27:15;27.00;88.40
37460;DHT22;23318;50.966;5.284;2022-07-03T14:29:59;29.50;88.00
37460;DHT22;23318;50.966;5.284;2022-07-03T14:32:43;27.40;89.90
37460;DHT22;23318;50.966;5.284;2022-07-03T14:35:09;26.40;89.80
37460;DHT22;23318;50.966;5.284;2022-07-03T14:37:35;26.40;90.20
37460;DHT22;23318;50.966;5.284;2022-07-03T14:40:00;25.80;89.90
37460;DHT22;23318;50.966;5.284;2022-07-03T14:42:26;25.50;89.10
37460;DHT22;23318;50.966;5.284;2022-07-03T14:44:52;25.40;90.40
37460;DHT22;23318;50.966;5.284;2022-07-03T14:47:18;25.90;90.90
37460;DHT22;23318;50.966;5.284;2022-07-03T14:49:44;25.80;91.30
37460;DHT22;23318;50.966;5.284;2022-07-03T14:52:10;25.20;90.80
37460;DHT22;23318;50.966;5.284;2022-07-03T14:54:37;26.20;90.70
37460;DHT22;23318;50.966;5.284;2022-07-03T14:57:23;29.20;87.70
37460;DHT22;23318;50.966;5.284;2022-07-03T15:02:21;26.70;89.10
37460;DHT22;23318;50.966;5.284;2022-07-03T15:07:19;25.50;90.20
37460;DHT22;23318;50.966;5.284;2022-07-03T15:09:55;26.50;88.90
37460;DHT22;23318;50.966;5.284;2022-07-03T15:12:26;26.90;88.20
37460;DHT22;23318;50.966;5.284;2022-07-03T15:14:53;26.70;88.60
37460;DHT22;23318;50.966;5.284;2022-07-03T15:17:23;26.90;89.30
37460;DHT22;23318;50.966;5.284;2022-07-03T15:19:50;28.70;86.10
37460;DHT22;23318;50.966;5.284;2022-07-03T15:22:19;28.90;85.00
37460;DHT22;23318;50.966;5.284;2022-07-03T15:24:50;27.60;86.60
37460;DHT22;23318;50.966;5.284;2022-07-03T15:27:22;26.50;87.20
37460;DHT22;23318;50.966;5.284;2022-07-03T15:29:48;26.50;88.60
37460;DHT22;23318;50.966;5.284;2022-07-03T15:32:16;29.40;87.50
37460;DHT22;23318;50.966;5.284;2022-07-03T15:34:42;30.50;84.50
37460;DHT22;23318;50.966;5.284;2022-07-03T15:37:27;28.80;84.00
37460;DHT22;23318;50.966;5.284;2022-07-03T15:40:10;29.80;84.50
37460;DHT22;23318;50.966;5.284;2022-07-03T15:42:48;29.10;82.40
37460;DHT22;23318;50.966;5.284;2022-07-03T15:48:10;30.20;82.70
37460;DHT22;23318;50.966;5.284;2022-07-03T15:50:58;30.10;83.20
37460;DHT22;23318;50.966;5.284;2022-07-03T15:53:28;29.50;83.50
37460;DHT22;23318;50.966;5.284;2022-07-03T15:56:00;29.00;83.50
37460;DHT22;23318;50.966;5.284;2022-07-03T15:58:32;29.70;83.40
37460;DHT22;23318;50.966;5.284;2022-07-03T16:01:04;29.50;82.90
37460;DHT22;23318;50.966;5.284;2022-07-03T16:06:27;27.60;85.20
37460;DHT22;23318;50.966;5.284;2022-07-03T16:08:53;27.90;84.90
37460;DHT22;23318;50.966;5.284;2022-07-03T16:11:19;26.60;85.40
37460;DHT22;23318;50.966;5.284;2022-07-03T16:13:46;25.50;89.30
37460;DHT22;23318;50.966;5.284;2022-07-03T16:16:13;24.70;91.10
37460;DHT22;23318;50.966;5.284;2022-07-03T16:18:40;24.40;91.60
37460;DHT22;23318;50.966;5.284;2022-07-03T16:21:07;24.70;91.60
37460;DHT22;23318;50.966;5.284;2022-07-03T16:23:33;24.20;91.40
37460;DHT22;23318;50.966;5.284;2022-07-03T16:26:00;23.50;92.80
37460;DHT22;23318;50.966;5.284;2022-07-03T16:28:27;23.50;93.20
37460;DHT22;23318;50.966;5.284;2022-07-03T16:30:54;23.90;93.20
37460;DHT22;23318;50.966;5.284;2022-07-03T16:33:27;24.00;92.80
37460;DHT22;23318;50.966;5.284;2022-07-03T16:35:58;23.70;94.30
37460;DHT22;23318;50.966;5.284;2022-07-03T16:38:35;24.20;92.10
37460;DHT22;23318;50.966;5.284;2022-07-03T16:41:05;24.50;91.60
37460;DHT22;23318;50.966;5.284;2022-07-03T16:43:32;24.10;92.20
37460;DHT22;23318;50.966;5.284;2022-07-03T16:46:01;24.20;92.10
37460;DHT22;23318;50.966;5.284;2022-07-03T16:48:28;24.00;92.60
37460;DHT22;23318;50.966;5.284;2022-07-03T16:50:57;23.50;93.20
37460;DHT22;23318;50.966;5.284;2022-07-03T16:53:24;23.70;93.90
37460;DHT22;23318;50.966;5.284;2022-07-03T16:55:50;23.80;93.80
37460;DHT22;23318;50.966;5.284;2022-07-03T16:58:16;23.70;94.00
37460;DHT22;23318;50.966;5.284;2022-07-03T17:00:42;23.60;93.60
37460;DHT22;23318;50.966;5.284;2022-07-03T17:03:09;23.70;94.60
37460;DHT22;23318;50.966;5.284;2022-07-03T17:05:36;23.50;95.60
37460;DHT22;23318;50.966;5.284;2022-07-03T17:08:03;23.20;96.20
37460;DHT22;23318;50.966;5.284;2022-07-03T17:10:29;23.00;97.70
37460;DHT22;23318;50.966;5.284;2022-07-03T17:12:58;23.10;97.80
37460;DHT22;23318;50.966;5.284;2022-07-03T17:15:26;23.10;98.20
37460;DHT22;23318;50.966;5.284;2022-07-03T17:18:01;23.30;97.10
37460;DHT22;23318;50.966;5.284;2022-07-03T17:20:38;23.30;96.90